createdAt,value
2022-08-12T00:00:53.458Z,4.43
2022-08-12T00:03:42.008Z,4.32
2022-08-12T00:06:28.048Z,4.80
2022-08-12T00:09:14.040Z,4.88
2022-08-12T00:12:02.436Z,4.68
2022-08-12T00:14:51.577Z,6.35
2022-08-12T00:17:38.035Z,4.97
2022-08-12T00:20:24.744Z,3.55
2022-08-12T00:23:15.872Z,4.85
2022-08-12T00:26:23.101Z,5.57
2022-08-12T00:29:09.978Z,4.85
2022-08-12T00:31:56.317Z,4.15
2022-08-12T00:34:41.936Z,4.05
2022-08-12T00:37:27.779Z,5.20
2022-08-12T00:40:14.737Z,5.15
2022-08-12T00:42:44.865Z,4.23
2022-08-12T00:45:13.370Z,3.80
2022-08-12T00:47:42.933Z,5.70
2022-08-12T00:50:20.603Z,5.07
2022-08-12T02:18:52.481Z,5.30
2022-08-12T02:23:47.033Z,5.50
2022-08-12T02:26:15.974Z,5.57
2022-08-12T02:28:43.630Z,5.65
2022-08-12T02:31:11.761Z,6.60
2022-08-12T02:33:39.722Z,4.57
2022-08-12T02:36:12.752Z,4.97
2022-08-12T02:38:42.733Z,3.67
2022-08-12T02:41:12.045Z,5.50
2022-08-12T02:43:48.979Z,4.07
2022-08-12T03:18:34.286Z,4.35
2022-08-12T03:21:02.737Z,4.95
2022-08-12T03:23:31.424Z,4.75
2022-08-12T03:26:02.525Z,5.97
2022-08-12T03:28:56.691Z,4.40
2022-08-12T03:31:37.474Z,4.97
2022-08-12T03:34:23.414Z,4.55
2022-08-12T03:36:52.860Z,4.13
2022-08-12T03:39:36.526Z,4.60
2022-08-12T03:42:07.563Z,4.95
2022-08-12T03:48:18.696Z,5.35
2022-08-12T03:51:05.298Z,11.23
2022-08-12T04:57:03.623Z,7.22
2022-08-12T04:59:32.591Z,7.75
2022-08-12T06:46:05.639Z,11.27
2022-08-12T06:48:39.199Z,10.32
2022-08-12T06:51:08.505Z,9.38
2022-08-12T06:53:37.055Z,9.25
2022-08-12T06:56:12.545Z,10.20
2022-08-12T06:58:40.095Z,11.30
2022-08-12T10:54:51.519Z,4.57
